Time;durP1;ratioP1;P1;durP2;ratioP2;P2;SDS_P1;SDS_P2;PMS_P1;PMS_P2;Temp;Humidity;BMP_temperature;BMP_pressure;BME280_temperature;BME280_humidity;BME280_pressure;Samples;Min_cycle;Max_cycle;Signal;HPM_P1;HPM_P2
2021/10/26 00:05:44;;;;;;;3.93;2.00;;;11.30;99.90;;;;;;6729584;88;20205;-78
2021/10/26 00:15:45;;;;;;;4.03;2.00;;;11.20;99.90;;;;;;6729821;88;20647;-78
2021/10/26 00:25:46;;;;;;;3.58;1.77;;;11.00;99.90;;;;;;6728176;88;20551;-78
2021/10/26 00:35:46;;;;;;;3.40;1.77;;;11.10;99.90;;;;;;6725406;88;20330;-78
2021/10/26 00:45:48;;;;;;;3.85;2.00;;;11.10;99.90;;;;;;6729050;88;20200;-78
2021/10/26 00:55:49;;;;;;;4.00;2.00;;;11.00;99.90;;;;;;6743021;88;20224;-78
2021/10/26 01:05:50;;;;;;;5.03;2.40;;;10.90;99.90;;;;;;6731568;88;20249;-78
2021/10/26 01:15:54;;;;;;;3.87;2.00;;;10.90;99.90;;;;;;6722504;88;20177;-77
2021/10/26 01:25:55;;;;;;;5.93;2.20;;;11.00;99.90;;;;;;6724552;88;20503;-77
2021/10/26 01:35:55;;;;;;;4.80;2.20;;;11.10;99.90;;;;;;6726481;88;20718;-78
2021/10/26 01:45:56;;;;;;;6.03;2.42;;;10.90;99.90;;;;;;6729016;88;20230;-78
2021/10/26 01:55:56;;;;;;;6.18;2.37;;;10.90;99.90;;;;;;6729353;88;20196;-78
2021/10/26 02:05:57;;;;;;;4.12;2.85;;;10.90;99.90;;;;;;6725372;88;20324;-77
2021/10/26 02:15:58;;;;;;;4.10;2.70;;;11.00;99.90;;;;;;6723881;88;20238;-78
2021/10/26 02:25:58;;;;;;;4.00;2.60;;;10.90;99.90;;;;;;6724131;77;20269;-75
2021/10/26 02:35:59;;;;;;;8.38;2.72;;;10.80;99.90;;;;;;6714127;88;20218;-75
2021/10/26 02:46:01;;;;;;;4.70;2.55;;;10.70;99.90;;;;;;6729645;88;20243;-74
2021/10/26 02:56:02;;;;;;;5.20;2.75;;;10.70;99.90;;;;;;6726448;88;20253;-74
2021/10/26 03:06:03;;;;;;;5.82;2.70;;;10.80;99.90;;;;;;6732358;88;20224;-75
2021/10/26 03:16:06;;;;;;;5.12;2.08;;;10.90;99.90;;;;;;6735357;88;20191;-76
2021/10/26 03:26:06;;;;;;;4.07;2.40;;;10.90;99.90;;;;;;6730728;88;20208;-75
2021/10/26 03:36:07;;;;;;;5.80;2.78;;;10.90;99.90;;;;;;6733173;88;20198;-75
2021/10/26 03:46:08;;;;;;;5.20;2.73;;;10.80;99.90;;;;;;6731873;88;20247;-76
2021/10/26 03:56:08;;;;;;;7.00;2.45;;;11.00;99.90;;;;;;6730293;88;20573;-76
2021/10/26 04:06:13;;;;;;;5.50;2.70;;;10.90;99.90;;;;;;6733789;88;20347;-74
2021/10/26 04:16:14;;;;;;;5.22;2.35;;;11.00;99.90;;;;;;6728200;88;21340;-75
2021/10/26 04:26:16;;;;;;;7.40;3.10;;;11.10;99.90;;;;;;6729415;88;20308;-75
2021/10/26 04:36:16;;;;;;;5.35;2.90;;;10.90;99.90;;;;;;6729891;88;20246;-75
2021/10/26 04:46:17;;;;;;;10.40;3.40;;;10.80;99.90;;;;;;6729074;88;20201;-76
2021/10/26 04:56:18;;;;;;;5.68;3.33;;;10.80;99.90;;;;;;6728642;88;20181;-74
2021/10/26 05:06:18;;;;;;;6.10;3.37;;;10.70;99.90;;;;;;6729660;88;20173;-75
2021/10/26 05:16:19;;;;;;;7.47;3.65;;;10.50;99.90;;;;;;6728003;88;20323;-75
2021/10/26 05:26:20;;;;;;;6.93;3.90;;;10.40;99.90;;;;;;6726141;88;20213;-76
2021/10/26 05:36:21;;;;;;;8.80;3.53;;;10.40;99.90;;;;;;6728183;88;20293;-76
2021/10/26 05:46:21;;;;;;;6.05;3.53;;;10.20;99.90;;;;;;6723576;88;20821;-76
2021/10/26 05:56:23;;;;;;;8.05;3.83;;;10.10;99.90;;;;;;6727531;88;20270;-76
2021/10/26 06:06:24;;;;;;;7.32;3.83;;;10.00;99.90;;;;;;6730184;88;20589;-76
2021/10/26 06:16:24;;;;;;;8.50;3.58;;;9.90;99.90;;;;;;6734062;88;20197;-76
2021/10/26 06:26:25;;;;;;;10.05;4.20;;;9.80;99.90;;;;;;6736130;88;20825;-75
2021/10/26 06:36:26;;;;;;;6.95;3.60;;;10.00;99.90;;;;;;6734177;88;20216;-76
2021/10/26 06:46:26;;;;;;;10.57;4.60;;;10.00;99.90;;;;;;6733359;88;20242;-75
2021/10/26 06:56:28;;;;;;;9.50;3.85;;;10.00;99.90;;;;;;6730474;88;20282;-75
2021/10/26 07:06:28;;;;;;;10.27;3.70;;;10.00;99.90;;;;;;6723946;88;20195;-74
2021/10/26 07:16:29;;;;;;;7.53;3.60;;;10.20;99.90;;;;;;6731161;88;20201;-75
2021/10/26 07:26:30;;;;;;;8.18;3.45;;;10.20;99.90;;;;;;6728186;87;20661;-75
2021/10/26 07:36:38;;;;;;;9.38;3.80;;;10.50;99.90;;;;;;6729128;88;20182;-76
2021/10/26 07:46:38;;;;;;;7.37;3.45;;;10.90;99.90;;;;;;6732485;88;20278;-75
2021/10/26 07:56:39;;;;;;;5.87;2.92;;;11.50;99.90;;;;;;6730297;88;20201;-76
2021/10/26 08:06:43;;;;;;;5.32;2.58;;;12.90;99.90;;;;;;6731426;88;20276;-76
2021/10/26 08:16:44;;;;;;;5.10;2.07;;;13.40;99.90;;;;;;6729298;88;20720;-76
2021/10/26 08:26:47;;;;;;;4.30;2.10;;;13.90;99.90;;;;;;6731520;88;20211;-75
2021/10/26 08:36:50;;;;;;;3.50;1.77;;;14.20;99.90;;;;;;6744235;88;20770;-77
2021/10/26 08:46:52;;;;;;;4.07;1.62;;;14.70;99.90;;;;;;6736080;88;20209;-76
2021/10/26 08:56:52;;;;;;;5.20;1.70;;;15.70;99.90;;;;;;6733423;88;20197;-77
2021/10/26 09:06:56;;;;;;;5.45;1.20;;;16.40;99.90;;;;;;6730347;88;20202;-77
2021/10/26 09:16:58;;;;;;;4.87;1.27;;;16.80;99.90;;;;;;6726825;88;20181;-77
2021/10/26 09:27:04;;;;;;;4.20;1.20;;;17.50;99.90;;;;;;6731301;88;20216;-76
2021/10/26 09:37:05;;;;;;;3.75;0.90;;;18.30;99.90;;;;;;6729466;88;20169;-77
2021/10/26 09:47:07;;;;;;;3.10;1.12;;;18.20;99.90;;;;;;6732616;88;20269;-77
2021/10/26 09:57:11;;;;;;;3.33;1.00;;;18.50;99.90;;;;;;6734402;88;20246;-75
2021/10/26 10:07:11;;;;;;;2.87;0.88;;;18.30;99.90;;;;;;6730045;88;20205;-77
2021/10/26 10:17:14;;;;;;;3.65;0.85;;;18.50;99.90;;;;;;6733076;88;20210;-76
2021/10/26 10:27:18;;;;;;;2.95;1.00;;;19.50;99.90;;;;;;6729001;88;20233;-75
2021/10/26 10:37:28;;;;;;;3.42;1.08;;;20.20;99.90;;;;;;6732632;88;20247;-76
2021/10/26 10:47:33;;;;;;;3.05;0.90;;;19.50;99.90;;;;;;6729240;88;20195;-77
2021/10/26 10:57:38;;;;;;;1.87;0.95;;;20.50;98.70;;;;;;6729763;88;20376;-76
2021/10/26 11:07:41;;;;;;;3.00;0.90;;;19.60;99.80;;;;;;6715990;88;20333;-75
2021/10/26 11:17:43;;;;;;;2.90;1.00;;;19.40;99.40;;;;;;6728117;88;20220;-76
2021/10/26 11:27:43;;;;;;;2.28;0.80;;;19.70;99.00;;;;;;6726954;88;20336;-75
2021/10/26 11:37:44;;;;;;;3.97;0.88;;;19.90;97.50;;;;;;6730480;88;20176;-75
2021/10/26 11:47:44;;;;;;;2.97;0.77;;;20.40;97.20;;;;;;6716249;88;20300;-75
2021/10/26 11:57:45;;;;;;;3.15;0.82;;;20.10;97.40;;;;;;6723565;88;20231;-76
2021/10/26 12:07:51;;;;;;;2.53;0.90;;;19.70;97.70;;;;;;6729327;88;20219;-77
2021/10/26 12:17:52;;;;;;;2.28;0.73;;;19.10;98.60;;;;;;6728079;88;20204;-77
2021/10/26 12:27:59;;;;;;;4.03;0.88;;;19.30;97.70;;;;;;6728925;88;20237;-77
2021/10/26 12:38:29;;;;;;;4.00;0.80;;;19.70;97.70;;;;;;6729906;88;20214;-77
2021/10/26 12:48:35;;;;;;;2.20;0.85;;;19.30;97.50;;;;;;6723812;88;20186;-76
2021/10/26 12:58:46;;;;;;;4.05;1.10;;;20.60;95.90;;;;;;6725287;88;20181;-76
2021/10/26 13:08:47;;;;;;;2.78;0.80;;;20.50;95.90;;;;;;6708805;88;20832;-76
2021/10/26 13:18:47;;;;;;;4.90;1.00;;;19.80;96.70;;;;;;6724436;88;20189;-74
2021/10/26 13:28:48;;;;;;;3.53;0.80;;;20.40;96.70;;;;;;6730454;88;20611;-74
2021/10/26 13:38:48;;;;;;;3.42;0.90;;;21.30;95.60;;;;;;6720176;88;20226;-74
2021/10/26 13:48:49;;;;;;;4.00;0.60;;;20.20;95.90;;;;;;6730117;88;20218;-76
2021/10/26 13:58:50;;;;;;;4.20;0.80;;;20.20;95.70;;;;;;6722232;88;20686;-75
2021/10/26 14:08:52;;;;;;;2.05;0.70;;;19.50;96.60;;;;;;6719367;88;20202;-76
2021/10/26 14:18:52;;;;;;;2.87;0.68;;;19.20;97.00;;;;;;6719345;88;20222;-75
2021/10/26 14:28:53;;;;;;;5.40;0.80;;;17.90;98.80;;;;;;6722266;88;20186;-76
2021/10/26 14:38:58;;;;;;;2.50;0.80;;;18.30;99.20;;;;;;6722692;88;20172;-76
2021/10/26 14:59:18;;;;;;;5.43;0.77;;;17.50;99.90;;;;;;6720532;88;20189;-76
2021/10/26 15:10:07;;;;;;;4.95;0.85;;;16.80;99.90;;;;;;6718771;88;20207;-76
2021/10/26 15:19:50;;;;;;;3.47;0.70;;;16.40;99.90;;;;;;6714357;88;20642;-76
2021/10/26 15:40:11;;;;;;;5.18;1.27;;;15.80;99.90;;;;;;6717175;88;20264;-77
2021/10/26 15:50:12;;;;;;;4.43;0.90;;;15.70;99.90;;;;;;6721907;88;20210;-77
2021/10/26 16:00:13;;;;;;;4.37;1.08;;;15.60;99.90;;;;;;6716934;88;20950;-76
2021/10/26 16:10:19;;;;;;;3.75;1.00;;;15.50;99.90;;;;;;6719666;88;20318;-77
2021/10/26 16:20:20;;;;;;;2.62;0.80;;;15.30;99.90;;;;;;6719575;88;20230;-77
2021/10/26 16:30:21;;;;;;;3.50;1.12;;;14.90;99.90;;;;;;6722406;88;20185;-78
2021/10/26 16:40:22;;;;;;;3.08;1.08;;;14.60;99.90;;;;;;6713136;88;20222;-77
2021/10/26 16:50:23;;;;;;;4.32;1.10;;;14.30;99.90;;;;;;6721761;88;20250;-77
2021/10/26 17:00:29;;;;;;;3.45;0.93;;;14.30;99.90;;;;;;6718727;88;20307;-76
2021/10/26 17:10:30;;;;;;;2.40;1.30;;;14.20;99.90;;;;;;6725345;88;20238;-74
2021/10/26 17:20:31;;;;;;;4.15;1.15;;;14.00;99.90;;;;;;6714321;88;20316;-75
2021/10/26 17:30:32;;;;;;;3.55;1.70;;;14.00;99.90;;;;;;6730213;88;20797;-75
2021/10/26 17:40:44;;;;;;;6.03;1.40;;;13.80;99.90;;;;;;6722232;88;20249;-75
2021/10/26 17:50:45;;;;;;;3.50;1.50;;;13.70;99.90;;;;;;6721000;88;20219;-76
2021/10/26 18:00:47;;;;;;;4.53;1.65;;;13.40;99.90;;;;;;6718363;88;20177;-76
2021/10/26 18:10:49;;;;;;;4.45;1.33;;;13.20;99.90;;;;;;6725589;88;20796;-75
2021/10/26 18:20:49;;;;;;;5.53;1.67;;;13.00;99.90;;;;;;6728625;88;20192;-75
2021/10/26 18:30:51;;;;;;;7.68;1.80;;;12.80;99.90;;;;;;6715850;88;20228;-76
2021/10/26 18:40:57;;;;;;;4.60;1.27;;;12.60;99.90;;;;;;6714562;88;20208;-76
2021/10/26 18:50:58;;;;;;;2.55;1.30;;;12.50;99.90;;;;;;6725334;88;20196;-76
2021/10/26 19:00:58;;;;;;;3.37;1.27;;;12.40;99.90;;;;;;6728210;88;20636;-76
2021/10/26 19:10:59;;;;;;;4.30;1.25;;;12.20;99.90;;;;;;6716636;88;20239;-76
2021/10/26 19:21:00;;;;;;;5.97;1.80;;;12.20;99.90;;;;;;6721747;88;20222;-76
2021/10/26 19:31:02;;;;;;;3.97;1.35;;;12.10;99.90;;;;;;6723873;88;20264;-76
2021/10/26 19:41:03;;;;;;;6.47;1.70;;;12.00;99.90;;;;;;6731005;88;20810;-76
2021/10/26 19:51:03;;;;;;;4.60;1.50;;;11.90;99.90;;;;;;6736580;87;20208;-76
2021/10/26 20:01:07;;;;;;;3.53;1.37;;;11.80;99.90;;;;;;6730680;87;21189;-76
2021/10/26 20:11:07;;;;;;;4.78;1.48;;;11.80;99.90;;;;;;6723071;88;20188;-76
2021/10/26 20:21:57;;;;;;;6.37;1.58;;;11.80;99.90;;;;;;6732730;88;20680;-76
2021/10/26 20:31:32;;;;;;;4.37;1.70;;;11.80;99.90;;;;;;6727548;88;20298;-76
2021/10/26 20:51:38;;;;;;;9.10;2.15;;;11.30;99.90;;;;;;6776541;87;20214;-81
2021/10/26 21:01:39;;;;;;;4.80;1.85;;;11.20;99.90;;;;;;6773981;87;20619;-78
2021/10/26 21:11:41;;;;;;;7.18;2.10;;;11.30;99.90;;;;;;6776391;87;20664;-79
2021/10/26 21:21:42;;;;;;;6.65;2.20;;;11.30;99.90;;;;;;6776563;87;20188;-79
2021/10/26 21:31:42;;;;;;;4.40;1.80;;;11.30;99.90;;;;;;6757792;87;20176;-79
2021/10/26 21:41:45;;;;;;;5.20;2.20;;;11.40;99.90;;;;;;6756846;87;20310;-78
2021/10/26 21:51:45;;;;;;;4.37;2.20;;;11.40;99.90;;;;;;6755793;87;20288;-79
2021/10/26 22:01:46;;;;;;;5.80;2.00;;;11.60;99.90;;;;;;6754913;88;20220;-79
2021/10/26 22:11:47;;;;;;;7.95;2.20;;;11.70;99.90;;;;;;6755519;87;20547;-78
2021/10/26 22:21:48;;;;;;;5.97;2.10;;;11.70;99.90;;;;;;6755826;88;20217;-82
2021/10/26 22:31:49;;;;;;;6.32;2.30;;;11.80;99.90;;;;;;6756169;87;20180;-78
2021/10/26 22:41:51;;;;;;;5.82;1.90;;;11.80;99.90;;;;;;6754999;87;20207;-79
2021/10/26 22:51:52;;;;;;;4.62;2.15;;;11.90;99.90;;;;;;6754691;87;20200;-79
2021/10/26 23:01:54;;;;;;;6.75;2.62;;;11.80;99.90;;;;;;6754236;87;20191;-79
2021/10/26 23:11:56;;;;;;;7.55;2.12;;;12.00;99.90;;;;;;6754198;87;20198;-78
2021/10/26 23:21:56;;;;;;;4.40;1.90;;;11.90;99.90;;;;;;6757180;87;20237;-77
2021/10/26 23:31:57;;;;;;;3.00;1.70;;;12.00;99.90;;;;;;6757454;87;20693;-80
2021/10/26 23:41:58;;;;;;;4.87;2.00;;;12.00;99.90;;;;;;6757319;87;21031;-80
2021/10/26 23:51:58;;;;;;;4.40;1.83;;;12.10;99.90;;;;;;6757154;87;20205;-77
